Time;durP1;ratioP1;P1;durP2;ratioP2;P2;SDS_P1;SDS_P2;PMS_P1;PMS_P2;Temp;Humidity;BMP_temperature;BMP_pressure;BME280_temperature;BME280_humidity;BME280_pressure;Samples;Min_cycle;Max_cycle;Signal;HPM_P1;HPM_P2
2023/09/05 00:01:51;;;;;;;4.00;3.60;;;;;;;20.35;87.13;100609.63;5016465;28;20304;-76
2023/09/05 00:04:16;;;;;;;4.47;4.07;;;;;;;20.31;86.99;100613.31;5012988;28;20276;-78
2023/09/05 00:06:41;;;;;;;5.37;3.70;;;;;;;20.30;85.60;100607.22;5012676;28;20215;-77
2023/09/05 00:09:07;;;;;;;3.80;3.50;;;;;;;20.30;85.28;100612.47;5020112;28;20282;-76
2023/09/05 00:11:33;;;;;;;4.10;3.70;;;;;;;20.29;85.30;100610.78;5019902;28;20274;-77
2023/09/05 00:14:00;;;;;;;3.97;3.67;;;;;;;20.27;85.06;100609.97;5020734;28;20182;-79
2023/09/05 00:16:26;;;;;;;4.13;3.63;;;;;;;20.28;84.08;100613.44;5019491;28;20183;-77
2023/09/05 00:18:51;;;;;;;5.43;4.00;;;;;;;20.27;83.38;100606.50;5011488;28;20198;-78
2023/09/05 00:21:18;;;;;;;4.13;3.67;;;;;;;20.24;83.01;100607.47;5019518;28;20237;-78
2023/09/05 00:23:44;;;;;;;3.73;3.43;;;;;;;20.23;83.57;100614.53;5023626;28;20202;-77
2023/09/05 00:26:09;;;;;;;3.93;3.40;;;;;;;20.24;83.34;100616.25;5019570;28;20207;-77
2023/09/05 00:28:35;;;;;;;3.90;3.60;;;;;;;20.20;83.56;100609.41;5020181;28;20245;-77
2023/09/05 00:31:01;;;;;;;3.47;3.27;;;;;;;20.20;84.23;100606.78;5025707;28;20630;-78
2023/09/05 00:33:28;;;;;;;4.07;3.67;;;;;;;20.10;85.49;100608.94;5020388;28;20611;-77
2023/09/05 00:35:54;;;;;;;4.03;3.63;;;;;;;20.05;85.94;100610.06;5015777;28;20321;-78
2023/09/05 00:38:20;;;;;;;4.23;3.93;;;;;;;19.97;86.73;100610.41;5024693;28;20205;-80
2023/09/05 00:40:48;;;;;;;4.10;3.70;;;;;;;19.90;87.07;100615.06;5022520;28;20206;-77
2023/09/05 00:43:13;;;;;;;3.80;3.40;;;;;;;19.83;87.41;100603.06;5023834;28;20282;-78
2023/09/05 00:45:45;;;;;;;4.43;3.40;;;;;;;19.75;89.14;100598.16;5019811;28;20308;-77
2023/09/05 00:48:11;;;;;;;4.43;4.03;;;;;;;19.75;92.62;100594.69;5027032;28;20499;-76
2023/09/05 00:50:40;;;;;;;4.93;4.43;;;;;;;19.64;94.38;100598.63;5025017;28;20214;-78
2023/09/05 00:53:06;;;;;;;8.83;5.17;;;;;;;19.39;96.09;100609.28;5027424;28;20229;-77
2023/09/05 00:55:31;;;;;;;4.50;4.20;;;;;;;19.26;96.73;100605.44;5024373;28;20672;-78
2023/09/05 00:58:00;;;;;;;5.83;4.53;;;;;;;19.13;97.43;100605.94;5021174;28;20190;-76
2023/09/05 01:00:26;;;;;;;4.60;4.20;;;;;;;19.00;98.08;100615.19;5018200;28;20203;-78
2023/09/05 01:02:53;;;;;;;4.10;3.80;;;;;;;18.91;97.81;100611.13;5023171;28;20189;-77
2023/09/05 01:05:24;;;;;;;4.13;3.73;;;;;;;18.89;96.70;100619.06;5023997;28;20229;-78
2023/09/05 01:08:02;;;;;;;4.27;3.97;;;;;;;19.00;95.91;100623.06;5019019;28;20593;-77
2023/09/05 01:10:47;;;;;;;4.70;4.30;;;;;;;18.95;97.17;100607.50;5021083;28;20298;-77
2023/09/05 01:13:22;;;;;;;4.40;4.10;;;;;;;18.92;97.62;100609.38;5015864;28;20194;-78
2023/09/05 01:15:47;;;;;;;5.03;4.47;;;;;;;18.84;98.16;100617.53;5025141;28;20684;-77
2023/09/05 01:18:13;;;;;;;4.47;4.17;;;;;;;18.79;97.89;100615.09;5020461;28;20181;-77
2023/09/05 01:20:54;;;;;;;4.43;4.03;;;;;;;18.77;97.97;100608.16;5026105;28;20237;-77
2023/09/05 01:23:24;;;;;;;4.73;4.30;;;;;;;18.69;98.52;100617.19;5023911;28;20200;-78
2023/09/05 01:25:50;;;;;;;4.20;3.90;;;;;;;18.63;99.00;100619.19;5023399;28;20182;-78
2023/09/05 01:28:16;;;;;;;5.17;4.30;;;;;;;18.63;98.67;100614.78;5020916;28;20233;-78
2023/09/05 01:30:42;;;;;;;4.10;3.80;;;;;;;18.59;98.13;100616.69;5023570;28;20212;-79
2023/09/05 01:33:08;;;;;;;4.50;4.10;;;;;;;18.57;98.43;100617.66;5020903;28;20186;-78
2023/09/05 01:35:33;;;;;;;4.43;4.03;;;;;;;18.55;99.25;100617.69;5020237;28;20191;-77
2023/09/05 01:37:59;;;;;;;4.63;4.17;;;;;;;18.48;100.00;100610.13;5019626;28;20250;-77
2023/09/05 01:40:24;;;;;;;4.77;4.37;;;;;;;18.34;100.00;100611.47;5020041;28;20209;-78
2023/09/05 01:42:49;;;;;;;4.57;4.03;;;;;;;18.38;100.00;100607.84;5020890;28;20214;-77
2023/09/05 01:45:15;;;;;;;4.90;4.50;;;;;;;18.36;100.00;100601.81;5030119;28;20230;-76
2023/09/05 01:47:40;;;;;;;4.03;3.73;;;;;;;18.30;100.00;100602.03;5021402;28;20261;-77
2023/09/05 01:50:06;;;;;;;4.30;3.93;;;;;;;18.37;99.79;100598.28;5018126;28;20280;-78
2023/09/05 01:52:31;;;;;;;4.27;3.87;;;;;;;18.42;98.99;100601.59;5024033;28;20175;-77
2023/09/05 01:54:56;;;;;;;4.17;3.77;;;;;;;18.42;98.71;100598.09;5022476;28;20208;-78
2023/09/05 01:57:22;;;;;;;4.47;4.07;;;;;;;18.49;98.61;100596.97;5021407;28;20187;-76
2023/09/05 01:59:47;;;;;;;4.80;4.03;;;;;;;18.48;99.52;100600.50;5019085;28;20193;-79
2023/09/05 02:02:12;;;;;;;4.40;4.10;;;;;;;18.45;100.00;100600.63;5028657;28;20292;-77
2023/09/05 02:04:38;;;;;;;4.23;3.93;;;;;;;18.39;100.00;100593.84;5021629;28;20205;-78
2023/09/05 02:07:03;;;;;;;4.27;3.97;;;;;;;18.35;100.00;100594.84;5026836;28;20204;-77
2023/09/05 02:09:28;;;;;;;3.97;3.67;;;;;;;18.27;100.00;100595.13;5025386;28;20199;-77
2023/09/05 02:11:53;;;;;;;4.50;4.10;;;;;;;18.28;100.00;100604.69;5023421;28;20216;-77
2023/09/05 02:14:19;;;;;;;4.20;3.80;;;;;;;18.22;100.00;100594.47;5022282;28;20924;-76
2023/09/05 02:16:45;;;;;;;4.63;3.97;;;;;;;18.20;99.77;100600.66;5021395;28;20314;-77
2023/09/05 02:19:10;;;;;;;4.10;3.80;;;;;;;18.16;100.00;100601.66;5020210;28;20182;-77
2023/09/05 02:21:35;;;;;;;4.93;4.53;;;;;;;18.15;99.36;100598.19;5018553;28;20195;-80
2023/09/05 02:24:01;;;;;;;4.50;4.10;;;;;;;18.11;98.99;100589.59;5025756;28;20184;-78
2023/09/05 02:26:26;;;;;;;4.47;4.07;;;;;;;18.10;98.88;100594.88;5019126;28;20200;-77
2023/09/05 02:28:52;;;;;;;4.57;4.03;;;;;;;18.16;97.57;100596.41;5026983;28;20187;-77
2023/09/05 02:31:17;;;;;;;4.13;3.83;;;;;;;18.07;98.06;100598.47;5021527;28;20204;-76
2023/09/05 02:33:43;;;;;;;4.27;3.87;;;;;;;18.09;96.84;100591.41;5022483;28;20280;-78
2023/09/05 02:36:17;;;;;;;4.07;3.67;;;;;;;18.05;96.49;100595.03;5022881;28;20186;-79
2023/09/05 02:38:43;;;;;;;5.87;3.80;;;;;;;18.02;96.02;100589.06;5022574;28;20194;-78
2023/09/05 02:41:16;;;;;;;4.20;3.80;;;;;;;18.02;95.71;100591.69;5017108;28;20231;-78
2023/09/05 02:43:41;;;;;;;5.00;4.13;;;;;;;18.00;95.26;100593.50;5011150;28;20188;-78
2023/09/05 02:46:07;;;;;;;4.33;3.40;;;;;;;18.02;94.68;100599.53;5019641;28;20219;-77
2023/09/05 02:48:37;;;;;;;4.60;3.30;;;;;;;17.99;94.33;100597.91;5026842;28;20274;-77
2023/09/05 02:51:04;;;;;;;3.70;3.40;;;;;;;18.01;92.98;100601.28;5019375;28;20203;-76
2023/09/05 02:53:31;;;;;;;3.60;3.30;;;;;;;18.05;92.93;100604.69;5013926;28;20196;-77
2023/09/05 02:55:56;;;;;;;4.13;3.73;;;;;;;18.06;92.55;100595.91;5019172;28;20184;-77
2023/09/05 02:58:21;;;;;;;3.93;3.50;;;;;;;18.03;92.27;100591.63;5017350;28;20196;-77
2023/09/05 03:00:50;;;;;;;3.70;3.40;;;;;;;18.08;91.56;100591.44;5016828;28;20216;-78
2023/09/05 03:03:16;;;;;;;3.70;3.40;;;;;;;18.10;91.72;100597.50;5019963;28;20623;-78
2023/09/05 03:05:42;;;;;;;4.13;3.50;;;;;;;18.07;91.52;100595.00;5016926;28;20180;-77
2023/09/05 03:08:08;;;;;;;3.50;3.20;;;;;;;18.09;90.89;100598.41;5013828;28;20213;-77
2023/09/05 03:10:33;;;;;;;3.60;3.30;;;;;;;18.06;90.56;100585.44;5017694;28;20270;-78
2023/09/05 03:12:58;;;;;;;3.90;3.20;;;;;;;18.04;90.56;100590.72;5017557;28;20657;-78
2023/09/05 03:15:25;;;;;;;3.30;3.10;;;;;;;18.01;90.59;100587.34;5021592;28;20191;-78
2023/09/05 03:17:51;;;;;;;3.43;3.03;;;;;;;17.96;90.65;100592.72;5016091;28;20182;-79
2023/09/05 03:20:18;;;;;;;3.70;3.37;;;;;;;17.88;91.26;100594.75;5024553;28;20208;-78
2023/09/05 03:22:43;;;;;;;3.57;3.20;;;;;;;17.89;91.61;100584.22;5016452;28;20180;-76
2023/09/05 03:25:09;;;;;;;4.07;3.40;;;;;;;17.81;92.22;100589.72;5024435;28;20294;-77
2023/09/05 03:27:34;;;;;;;4.53;3.53;;;;;;;17.87;90.95;100582.56;5021461;28;20217;-77
2023/09/05 03:30:00;;;;;;;3.33;3.00;;;;;;;17.80;91.15;100584.53;5025489;28;20211;-77
2023/09/05 03:32:25;;;;;;;3.67;3.37;;;;;;;17.79;91.73;100588.06;5021981;28;20193;-77
2023/09/05 03:34:51;;;;;;;3.67;3.00;;;;;;;17.77;92.01;100592.50;5019664;28;20632;-78
2023/09/05 03:37:17;;;;;;;4.00;3.13;;;;;;;17.70;92.98;100585.75;5021074;28;20696;-77
2023/09/05 03:39:42;;;;;;;3.43;3.13;;;;;;;17.66;93.36;100577.16;5020555;28;20184;-77
2023/09/05 03:42:08;;;;;;;4.23;3.27;;;;;;;17.63;93.52;100580.72;5019227;28;20608;-77
2023/09/05 03:44:34;;;;;;;3.03;2.83;;;;;;;17.62;93.70;100579.00;5019644;28;20187;-77
2023/09/05 03:46:59;;;;;;;3.83;3.23;;;;;;;17.59;93.18;100576.53;5013523;28;20203;-77
2023/09/05 03:49:24;;;;;;;3.47;3.17;;;;;;;17.56;92.62;100589.69;5015362;28;20287;-77
2023/09/05 03:51:49;;;;;;;4.33;3.30;;;;;;;17.54;92.09;100598.53;5018970;28;20288;-78
2023/09/05 03:54:15;;;;;;;3.60;3.30;;;;;;;17.59;91.77;100589.59;5021786;28;20208;-77
2023/09/05 03:56:40;;;;;;;3.13;2.90;;;;;;;17.57;91.01;100604.50;5021066;28;20731;-76
2023/09/05 03:59:05;;;;;;;3.40;3.10;;;;;;;17.59;90.91;100605.31;5027211;28;20194;-76
2023/09/05 04:01:31;;;;;;;5.47;3.40;;;;;;;17.68;90.01;100610.22;5026898;28;20975;-78
2023/09/05 04:03:56;;;;;;;3.43;3.13;;;;;;;17.73;89.93;100607.44;5022611;28;20202;-78
2023/09/05 04:06:21;;;;;;;3.17;2.87;;;;;;;17.75;88.91;100607.41;5021127;28;20210;-77
2023/09/05 04:08:46;;;;;;;4.23;3.20;;;;;;;17.78;88.92;100597.69;5023436;28;20183;-77
2023/09/05 04:11:12;;;;;;;3.47;3.10;;;;;;;17.77;87.81;100606.44;5022580;28;20615;-77
2023/09/05 04:13:38;;;;;;;3.13;2.83;;;;;;;17.81;87.34;100594.09;5023058;28;20189;-78
2023/09/05 04:16:05;;;;;;;3.13;2.80;;;;;;;17.87;87.05;100601.75;5025819;28;20707;-77
2023/09/05 04:18:30;;;;;;;4.73;2.90;;;;;;;17.91;87.10;100587.66;5021054;28;20193;-76
2023/09/05 04:20:57;;;;;;;3.10;2.90;;;;;;;17.97;86.15;100590.06;5021088;28;20255;-77
2023/09/05 04:23:23;;;;;;;2.90;2.70;;;;;;;17.96;85.95;100590.94;5023552;28;20195;-76
2023/09/05 04:25:58;;;;;;;3.40;3.10;;;;;;;17.93;86.78;100596.28;5024995;28;20188;-76
2023/09/05 04:28:24;;;;;;;4.97;2.80;;;;;;;17.92;87.06;100599.81;5021839;28;20184;-78
2023/09/05 04:30:50;;;;;;;5.50;3.00;;;;;;;17.88;87.04;100598.22;5019478;28;20206;-77
2023/09/05 04:33:16;;;;;;;2.83;2.63;;;;;;;17.89;87.54;100601.69;5023281;28;20181;-77
2023/09/05 04:35:41;;;;;;;3.27;2.83;;;;;;;17.89;87.72;100610.41;5022137;28;20660;-77
2023/09/05 04:38:06;;;;;;;3.27;2.80;;;;;;;17.85;87.77;100611.41;5021485;28;20679;-76
2023/09/05 04:40:32;;;;;;;3.20;2.90;;;;;;;17.79;87.71;100612.50;5023124;28;20834;-78
2023/09/05 04:42:57;;;;;;;2.93;2.73;;;;;;;17.86;88.01;100622.72;5026167;28;20186;-76
2023/09/05 04:45:22;;;;;;;3.23;2.80;;;;;;;17.84;87.55;100617.56;5028706;28;20274;-76
2023/09/05 04:47:47;;;;;;;3.47;2.80;;;;;;;17.85;89.00;100626.28;5022207;28;20272;-78
2023/09/05 04:50:13;;;;;;;3.33;2.60;;;;;;;17.90;87.81;100627.84;5026388;28;20291;-76
2023/09/05 04:52:38;;;;;;;2.83;2.63;;;;;;;17.91;87.72;100626.94;5021391;28;20914;-78
2023/09/05 04:55:04;;;;;;;2.70;2.50;;;;;;;17.92;87.91;100627.78;5023924;28;20199;-77
2023/09/05 04:57:29;;;;;;;4.93;3.20;;;;;;;17.89;88.41;100625.25;5021088;28;20745;-76
2023/09/05 04:59:59;;;;;;;2.70;2.50;;;;;;;17.91;88.36;100623.44;5017528;28;20174;-76
2023/09/05 05:02:25;;;;;;;4.37;2.80;;;;;;;17.92;88.14;100627.78;5019668;28;20209;-77
2023/09/05 05:04:51;;;;;;;2.70;2.50;;;;;;;17.89;88.24;100633.97;5021165;28;20192;-76
2023/09/05 05:07:16;;;;;;;3.27;3.00;;;;;;;17.86;88.38;100634.06;5020524;28;20213;-76
2023/09/05 05:09:42;;;;;;;3.20;2.90;;;;;;;17.82;88.66;100635.94;5022374;28;20695;-78
2023/09/05 05:12:08;;;;;;;3.07;2.57;;;;;;;17.85;88.58;100640.22;5023525;28;20219;-76
2023/09/05 05:14:34;;;;;;;3.20;2.90;;;;;;;17.87;89.09;100646.25;5023028;28;20214;-77
2023/09/05 05:16:59;;;;;;;4.57;2.70;;;;;;;17.86;88.68;100636.69;5019693;28;20194;-76
2023/09/05 05:19:25;;;;;;;3.53;2.80;;;;;;;17.86;89.11;100647.16;5022166;28;20182;-77
2023/09/05 05:21:51;;;;;;;2.83;2.63;;;;;;;17.80;89.00;100637.75;5024760;28;20220;-77
2023/09/05 05:24:17;;;;;;;4.03;2.80;;;;;;;17.81;89.58;100647.31;5021830;28;20183;-78
2023/09/05 05:26:43;;;;;;;4.00;2.70;;;;;;;17.80;89.14;100663.06;5019206;28;21255;-76
2023/09/05 05:29:09;;;;;;;4.00;2.77;;;;;;;17.79;89.53;100656.13;5016574;28;20196;-77
2023/09/05 05:31:34;;;;;;;3.17;2.87;;;;;;;17.76;89.78;100654.47;5021689;28;20206;-76
2023/09/05 05:34:01;;;;;;;3.20;2.90;;;;;;;17.80;89.75;100657.84;5025242;28;20915;-77
2023/09/05 05:36:26;;;;;;;3.13;2.83;;;;;;;17.82;90.08;100671.72;5021676;28;20256;-77
2023/09/05 05:38:52;;;;;;;4.90;3.00;;;;;;;17.81;90.93;100667.41;5017173;28;20274;-76
2023/09/05 05:41:17;;;;;;;2.80;2.60;;;;;;;17.86;90.86;100670.72;5019863;28;20217;-78
2023/09/05 05:43:43;;;;;;;2.63;2.43;;;;;;;17.89;90.57;100661.91;5022658;28;20691;-77
2023/09/05 05:46:09;;;;;;;4.07;2.93;;;;;;;17.93;90.56;100669.59;5023522;28;20209;-76
2023/09/05 05:48:35;;;;;;;3.33;2.50;;;;;;;17.94;90.28;100666.06;5020116;28;20208;-76
2023/09/05 05:51:01;;;;;;;2.97;2.77;;;;;;;17.97;90.47;100673.88;5021635;28;20290;-77
2023/09/05 05:53:26;;;;;;;2.57;2.37;;;;;;;18.07;90.23;100670.97;5028869;28;20318;-76
2023/09/05 05:55:52;;;;;;;4.13;2.90;;;;;;;18.15;89.87;100671.53;5032257;28;20196;-77
2023/09/05 05:58:17;;;;;;;3.37;3.03;;;;;;;18.18;89.84;100674.06;5025525;28;20182;-77
2023/09/05 06:00:46;;;;;;;4.17;2.60;;;;;;;18.13;89.10;100671.59;5028839;28;20690;-77
2023/09/05 06:03:11;;;;;;;4.67;2.40;;;;;;;18.26;89.32;100677.25;5027910;28;20186;-76
2023/09/05 06:05:37;;;;;;;6.00;3.00;;;;;;;18.22;89.45;100674.78;5028765;28;20181;-77
2023/09/05 06:08:03;;;;;;;3.27;2.97;;;;;;;18.17;89.71;100679.31;5019289;28;20715;-76
2023/09/05 06:10:28;;;;;;;5.00;2.83;;;;;;;18.22;89.88;100678.28;5021808;28;21073;-76
2023/09/05 06:12:54;;;;;;;2.63;2.40;;;;;;;18.28;90.51;100680.69;5022166;28;20192;-76
2023/09/05 06:15:19;;;;;;;5.13;3.07;;;;;;;18.32;90.77;100677.97;5020596;28;20188;-78
2023/09/05 06:17:45;;;;;;;4.03;2.70;;;;;;;18.45;89.60;100674.00;5020495;28;20269;-79
2023/09/05 06:20:11;;;;;;;3.30;2.70;;;;;;;18.55;89.50;100672.72;5024018;28;20208;-76
2023/09/05 06:22:38;;;;;;;3.20;2.90;;;;;;;18.64;90.20;100674.16;5021970;28;20196;-76
2023/09/05 06:25:05;;;;;;;7.40;3.53;;;;;;;18.77;88.28;100679.84;5019152;28;20196;-76
2023/09/05 06:27:30;;;;;;;10.83;4.37;;;;;;;18.86;88.27;100670.75;5024741;28;20570;-77
2023/09/05 06:29:56;;;;;;;3.50;2.80;;;;;;;18.87;88.69;100670.69;5024010;28;20180;-78
2023/09/05 06:32:21;;;;;;;7.67;3.50;;;;;;;19.15;87.76;100667.03;5013113;28;20175;-76
2023/09/05 06:34:47;;;;;;;3.13;2.70;;;;;;;19.12;87.82;100669.81;5028903;28;20174;-78
2023/09/05 06:37:12;;;;;;;3.57;2.80;;;;;;;19.28;87.95;100654.31;5027254;28;20183;-78
2023/09/05 06:39:38;;;;;;;4.20;2.80;;;;;;;19.52;87.47;100661.28;5031560;28;20178;-77
2023/09/05 06:42:04;;;;;;;3.83;2.60;;;;;;;19.76;86.39;100657.63;5034573;28;20289;-76
2023/09/05 06:44:29;;;;;;;3.77;2.80;;;;;;;19.86;85.14;100654.63;5028213;28;20256;-76
2023/09/05 06:46:55;;;;;;;4.03;2.97;;;;;;;20.03;85.33;100651.31;5020500;28;20211;-76
2023/09/05 06:49:20;;;;;;;3.00;2.37;;;;;;;20.31;84.42;100650.97;5021460;28;20755;-77
2023/09/05 06:51:45;;;;;;;2.77;2.07;;;;;;;20.50;83.88;100647.50;5025260;28;20203;-76
2023/09/05 06:54:11;;;;;;;2.63;2.43;;;;;;;20.88;82.42;100646.72;5036073;28;20179;-76
2023/09/05 06:56:36;;;;;;;3.43;2.60;;;;;;;21.07;82.19;100652.00;5028284;28;20558;-76
2023/09/05 06:59:01;;;;;;;3.03;2.50;;;;;;;21.42;81.37;100649.44;5021512;28;20176;-76
2023/09/05 07:01:28;;;;;;;2.87;2.30;;;;;;;21.81;80.70;100653.69;5029100;28;20708;-75
2023/09/05 07:03:53;;;;;;;2.53;2.30;;;;;;;21.97;79.29;100647.66;5038337;28;20675;-75
2023/09/05 07:06:19;;;;;;;3.37;2.40;;;;;;;22.11;79.44;100646.94;5029204;28;20220;-77
2023/09/05 07:08:46;;;;;;;4.83;2.57;;;;;;;22.52;79.58;100641.31;5033534;28;20194;-76
2023/09/05 07:11:11;;;;;;;2.50;2.27;;;;;;;22.83;78.34;100645.78;5031288;28;20207;-75
2023/09/05 07:13:37;;;;;;;4.87;2.60;;;;;;;23.35;76.59;100648.25;5031539;28;20645;-77
2023/09/05 07:16:02;;;;;;;3.17;2.80;;;;;;;23.37;76.02;100654.28;5037240;28;20182;-77
2023/09/05 07:18:27;;;;;;;3.53;2.23;;;;;;;23.48;75.60;100651.88;5025906;28;20274;-76
2023/09/05 07:20:53;;;;;;;3.90;2.37;;;;;;;23.57;73.63;100651.38;5029884;28;20199;-76
2023/09/05 07:23:18;;;;;;;3.27;2.20;;;;;;;23.86;74.90;100651.47;5027594;28;20660;-76
2023/09/05 07:25:44;;;;;;;2.80;2.20;;;;;;;23.74;72.05;100662.75;5022604;28;20451;-78
2023/09/05 07:28:10;;;;;;;3.57;2.30;;;;;;;23.14;73.41;100657.25;5019393;28;20660;-77
2023/09/05 07:30:35;;;;;;;3.60;2.50;;;;;;;23.17;74.41;100658.03;5025578;28;20254;-75
2023/09/05 07:33:03;;;;;;;2.70;2.20;;;;;;;22.88;74.76;100658.72;5029673;28;20183;-77
2023/09/05 07:35:28;;;;;;;2.10;1.90;;;;;;;23.32;73.53;100656.34;5028846;28;20191;-76
2023/09/05 07:37:53;;;;;;;6.90;2.90;;;;;;;22.99;73.58;100663.41;5036046;28;20229;-76
2023/09/05 07:40:19;;;;;;;2.60;2.40;;;;;;;22.49;75.13;100663.41;5030539;28;20594;-77
2023/09/05 07:42:44;;;;;;;3.37;2.40;;;;;;;22.60;76.68;100654.09;5037478;28;20218;-78
2023/09/05 07:45:10;;;;;;;4.30;2.57;;;;;;;22.44;77.33;100651.41;5026075;28;20208;-78
2023/09/05 07:47:35;;;;;;;4.20;2.20;;;;;;;22.52;76.81;100657.13;5024582;28;20687;-77
2023/09/05 07:50:01;;;;;;;3.20;2.30;;;;;;;22.63;76.39;100653.91;5025981;28;20607;-76
2023/09/05 07:52:27;;;;;;;3.03;2.10;;;;;;;22.61;77.62;100656.63;5029974;28;20274;-76
2023/09/05 07:54:52;;;;;;;4.30;2.47;;;;;;;22.60;76.66;100659.38;5023271;28;20271;-76
2023/09/05 07:57:18;;;;;;;4.03;2.70;;;;;;;22.55;77.34;100656.13;5024643;28;20656;-78
2023/09/05 07:59:44;;;;;;;4.13;2.30;;;;;;;22.55;78.12;100656.13;5021891;28;20345;-77
2023/09/05 08:02:10;;;;;;;2.67;1.97;;;;;;;22.79;77.53;100654.78;5026260;28;20212;-76
2023/09/05 08:04:37;;;;;;;3.47;2.40;;;;;;;22.67;78.43;100658.09;5028798;28;20617;-76
2023/09/05 08:07:02;;;;;;;3.80;2.60;;;;;;;22.80;77.88;100653.00;5021324;28;20206;-77
2023/09/05 08:09:28;;;;;;;2.97;2.37;;;;;;;22.49;78.95;100652.84;5031478;28;20556;-76
2023/09/05 08:11:53;;;;;;;2.63;2.30;;;;;;;22.39;78.08;100657.72;5028823;28;20981;-76
2023/09/05 08:14:18;;;;;;;3.23;2.13;;;;;;;22.56;78.56;100657.81;5028343;28;20264;-79
2023/09/05 08:16:44;;;;;;;3.73;2.17;;;;;;;22.53;79.71;100659.69;5023788;28;20226;-76
2023/09/05 08:19:09;;;;;;;4.63;2.53;;;;;;;22.48;79.18;100663.50;5024167;28;20208;-76
2023/09/05 08:21:35;;;;;;;4.23;2.40;;;;;;;22.34;79.61;100665.06;5028038;28;20340;-76
2023/09/05 08:24:00;;;;;;;2.90;2.50;;;;;;;22.43;80.13;100662.88;5025824;28;20263;-78
2023/09/05 08:26:26;;;;;;;2.43;2.23;;;;;;;22.50;80.61;100659.84;5016610;28;20246;-77
2023/09/05 08:28:51;;;;;;;2.83;2.40;;;;;;;22.60;79.99;100659.38;5016887;28;20222;-77
2023/09/05 08:31:16;;;;;;;2.50;2.30;;;;;;;22.50;81.06;100659.00;5022795;28;20215;-76
2023/09/05 08:33:42;;;;;;;3.83;2.60;;;;;;;22.62;80.32;100663.63;5021393;28;20192;-77
2023/09/05 08:36:09;;;;;;;3.40;2.47;;;;;;;22.62;79.58;100662.75;5029624;28;20194;-77
2023/09/05 08:38:37;;;;;;;4.00;2.50;;;;;;;22.82;80.44;100656.41;5037513;28;20275;-77
2023/09/05 08:41:04;;;;;;;6.10;2.93;;;;;;;22.84;80.25;100660.66;5015852;28;20211;-77
2023/09/05 08:43:29;;;;;;;3.37;2.53;;;;;;;22.84;80.16;100658.03;5030728;28;20337;-78
2023/09/05 08:45:55;;;;;;;3.40;2.60;;;;;;;22.91;79.75;100653.25;5034695;28;20656;-76
2023/09/05 08:48:21;;;;;;;2.33;2.13;;;;;;;23.02;79.38;100649.16;5023588;28;20223;-76
2023/09/05 08:50:47;;;;;;;6.87;2.37;;;;;;;22.87;79.63;100650.88;5028120;28;20199;-76
2023/09/05 08:53:15;;;;;;;4.23;2.37;;;;;;;22.94;78.74;100642.53;5027577;28;20184;-76
2023/09/05 08:55:41;;;;;;;3.93;2.90;;;;;;;23.03;79.19;100640.31;5025241;28;21059;-76
2023/09/05 08:58:13;;;;;;;4.30;2.50;;;;;;;23.34;79.75;100646.53;5026267;28;20185;-77
2023/09/05 09:00:39;;;;;;;5.20;2.77;;;;;;;23.43;80.22;100646.03;5029214;28;20253;-77
2023/09/05 09:03:07;;;;;;;5.77;2.40;;;;;;;23.53;79.00;100644.56;5026195;28;20285;-76
2023/09/05 09:05:33;;;;;;;3.33;2.30;;;;;;;23.52;78.97;100653.41;5031265;28;20196;-76
2023/09/05 09:07:59;;;;;;;2.03;1.87;;;;;;;23.63;77.56;100652.81;5020930;28;20253;-76
2023/09/05 09:10:24;;;;;;;2.80;2.50;;;;;;;23.85;76.60;100648.88;5020332;28;20212;-77
2023/09/05 09:12:54;;;;;;;2.93;2.07;;;;;;;23.85;79.37;100644.47;5024900;28;20230;-77
2023/09/05 09:15:22;;;;;;;4.17;2.43;;;;;;;23.83;77.95;100648.97;5030323;28;20556;-76
2023/09/05 09:17:50;;;;;;;2.33;2.03;;;;;;;23.74;77.24;100646.91;5026749;28;20184;-77
2023/09/05 09:20:16;;;;;;;3.50;2.30;;;;;;;23.64;77.36;100643.94;5028743;28;20257;-76
2023/09/05 09:22:42;;;;;;;4.10;2.40;;;;;;;23.75;77.55;100657.38;5021175;28;20666;-76
2023/09/05 09:25:20;;;;;;;2.30;2.10;;;;;;;23.75;77.81;100652.09;5023336;28;20187;-76
2023/09/05 09:27:50;;;;;;;3.37;2.13;;;;;;;23.92;77.32;100646.72;5029991;28;20253;-76
2023/09/05 09:30:15;;;;;;;2.67;1.90;;;;;;;24.15;77.59;100640.09;5028966;28;20559;-79
2023/09/05 09:32:41;;;;;;;5.77;2.60;;;;;;;24.02;76.92;100647.94;5025828;28;20224;-77
2023/09/05 09:35:10;;;;;;;3.37;2.23;;;;;;;24.05;75.34;100651.22;5025769;28;20220;-77
2023/09/05 09:37:35;;;;;;;6.90;2.27;;;;;;;24.29;76.42;100650.69;5029836;28;20256;-76
2023/09/05 09:40:04;;;;;;;7.03;2.70;;;;;;;24.40;75.59;100638.63;5029971;28;20274;-77
2023/09/05 09:42:29;;;;;;;5.40;2.60;;;;;;;24.51;76.23;100636.97;5037337;28;20203;-77
2023/09/05 09:44:55;;;;;;;4.67;2.30;;;;;;;24.41;74.57;100635.84;5039116;28;20187;-78
2023/09/05 09:47:21;;;;;;;21.23;6.67;;;;;;;24.45;76.12;100626.78;5033641;28;20663;-76
2023/09/05 09:49:51;;;;;;;3.57;2.40;;;;;;;24.63;73.22;100627.44;5017943;28;20203;-76
2023/09/05 09:52:22;;;;;;;6.47;2.40;;;;;;;24.73;73.50;100616.31;5029631;28;20290;-77
2023/09/05 09:54:51;;;;;;;3.93;2.13;;;;;;;24.61;73.67;100615.25;5028138;28;20180;-76
2023/09/05 09:57:33;;;;;;;2.50;2.00;;;;;;;24.57;73.87;100613.75;5027155;28;20208;-76
2023/09/05 10:00:03;;;;;;;2.57;1.97;;;;;;;24.70;73.91;100619.16;5024159;28;20180;-78
2023/09/05 10:02:29;;;;;;;2.37;2.17;;;;;;;24.87;75.00;100615.41;5036454;28;20198;-77
2023/09/05 10:04:56;;;;;;;3.60;2.10;;;;;;;24.99;73.82;100616.44;5020370;28;20637;-77
2023/09/05 10:07:22;;;;;;;2.17;1.97;;;;;;;24.91;73.61;100616.94;5026710;28;20215;-78
2023/09/05 10:09:49;;;;;;;2.03;1.70;;;;;;;24.98;74.77;100612.09;5018860;28;20207;-77
2023/09/05 10:12:18;;;;;;;6.47;2.23;;;;;;;25.08;74.50;100603.47;5022385;28;20722;-77
2023/09/05 10:14:45;;;;;;;2.80;2.10;;;;;;;25.20;74.05;100609.72;5034269;28;20721;-79
2023/09/05 10:17:11;;;;;;;3.37;1.83;;;;;;;25.24;73.25;100605.09;5022250;28;20192;-77
2023/09/05 10:19:37;;;;;;;2.10;1.90;;;;;;;25.21;72.30;100606.13;5020868;28;20274;-76
2023/09/05 10:22:04;;;;;;;3.10;2.33;;;;;;;25.22;72.95;100609.66;5022202;28;20765;-78
2023/09/05 10:24:31;;;;;;;2.00;1.80;;;;;;;25.33;73.51;100601.00;5025356;28;20194;-77
2023/09/05 10:26:57;;;;;;;3.93;1.97;;;;;;;25.46;72.81;100586.00;5017336;28;20204;-77
2023/09/05 10:29:32;;;;;;;2.80;2.20;;;;;;;25.58;73.30;100594.06;5020977;28;20187;-77
2023/09/05 10:31:57;;;;;;;2.27;1.70;;;;;;;25.65;71.94;100595.34;5025426;28;20207;-78
2023/09/05 10:34:58;;;;;;;2.20;1.80;;;;;;;25.67;72.47;100598.75;5029219;28;20174;-78
2023/09/05 10:37:32;;;;;;;2.27;1.90;;;;;;;25.63;72.17;100595.47;5033025;28;20361;-77
2023/09/05 10:40:07;;;;;;;2.67;1.87;;;;;;;25.71;71.00;100594.94;5022813;28;20198;-77
2023/09/05 10:42:34;;;;;;;2.97;2.13;;;;;;;25.73;72.07;100598.34;5021223;28;20914;-76
2023/09/05 10:45:18;;;;;;;3.33;2.30;;;;;;;25.69;71.37;100596.84;5024699;28;20191;-78
2023/09/05 10:47:43;;;;;;;1.73;1.60;;;;;;;25.75;70.90;100591.13;5024451;28;20203;-77
2023/09/05 10:50:10;;;;;;;3.57;2.10;;;;;;;25.85;70.91;100597.50;5030148;28;20229;-78
2023/09/05 10:52:36;;;;;;;3.87;1.90;;;;;;;25.89;69.69;100587.53;5026245;28;20199;-77
2023/09/05 10:55:29;;;;;;;5.50;2.07;;;;;;;25.90;70.57;100591.88;5021753;28;20640;-77
2023/09/05 10:57:56;;;;;;;4.47;2.20;;;;;;;25.99;70.33;100593.91;5025474;28;20233;-77
2023/09/05 11:00:26;;;;;;;2.20;2.00;;;;;;;25.86;69.86;100590.41;5023500;28;20222;-78
2023/09/05 11:02:53;;;;;;;6.53;2.40;;;;;;;25.93;71.42;100585.53;5025420;28;20180;-77
2023/09/05 11:05:19;;;;;;;5.20;2.60;;;;;;;25.98;70.04;100586.03;5022439;28;20188;-77
2023/09/05 11:07:50;;;;;;;4.17;2.20;;;;;;;26.05;68.91;100589.97;5032428;28;20258;-76
2023/09/05 11:10:28;;;;;;;4.10;2.37;;;;;;;26.08;68.72;100581.81;5026578;28;20788;-77
2023/09/05 11:12:54;;;;;;;3.37;2.13;;;;;;;26.21;69.25;100580.97;5022801;28;20214;-77
2023/09/05 11:15:43;;;;;;;5.67;2.53;;;;;;;26.29;69.07;100581.25;5023450;28;20207;-78
2023/09/05 11:18:17;;;;;;;2.23;2.03;;;;;;;26.24;68.73;100576.28;5019725;28;20184;-77
2023/09/05 11:20:45;;;;;;;3.60;2.47;;;;;;;26.18;68.11;100576.72;5022727;28;20242;-76
2023/09/05 11:23:17;;;;;;;2.77;2.13;;;;;;;26.33;69.75;100565.00;5013452;28;20609;-77